Time;durP1;ratioP1;P1;durP2;ratioP2;P2;SDS_P1;SDS_P2;PMS_P1;PMS_P2;Temp;Humidity;BMP_temperature;BMP_pressure;BME280_temperature;BME280_humidity;BME280_pressure;Samples;Min_cycle;Max_cycle;Signal;HPM_P1;HPM_P2
2022/04/09 00:00:41;;;;;;;6.70;5.65;;;5.70;99.90;;;;;;2072106;28;20033;-67
2022/04/09 00:01:41;;;;;;;6.93;5.85;;;5.70;99.90;;;;;;2072218;28;20018;-67
2022/04/09 00:02:42;;;;;;;7.97;6.18;;;5.70;99.90;;;;;;2072052;28;20033;-68
2022/04/09 00:03:43;;;;;;;9.82;6.50;;;5.70;99.90;;;;;;2071957;28;20032;-67
2022/04/09 00:04:44;;;;;;;7.38;6.00;;;5.60;99.90;;;;;;2072261;28;20049;-67
2022/04/09 00:05:44;;;;;;;9.05;6.53;;;5.60;99.90;;;;;;2072054;28;20037;-68
2022/04/09 00:06:45;;;;;;;9.65;6.55;;;5.50;99.90;;;;;;2071936;28;20041;-68
2022/04/09 00:07:45;;;;;;;9.00;6.50;;;5.50;99.90;;;;;;2072015;28;20030;-67
2022/04/09 00:08:46;;;;;;;7.35;6.00;;;5.50;99.90;;;;;;2071771;28;20030;-67
2022/04/09 00:09:46;;;;;;;7.78;5.90;;;5.50;99.90;;;;;;2071588;28;20037;-68
2022/04/09 00:10:47;;;;;;;8.10;6.00;;;5.60;99.90;;;;;;2071886;28;20146;-67
2022/04/09 00:11:48;;;;;;;8.10;6.00;;;5.60;99.90;;;;;;2071443;28;20030;-68
2022/04/09 00:12:48;;;;;;;6.43;5.70;;;5.60;99.90;;;;;;2071292;28;20040;-68
2022/04/09 00:13:49;;;;;;;7.97;5.72;;;5.60;99.90;;;;;;2071112;28;20030;-68
2022/04/09 00:14:50;;;;;;;7.97;5.65;;;5.50;99.90;;;;;;2071446;28;20046;-68
2022/04/09 00:15:50;;;;;;;6.55;5.40;;;5.50;99.90;;;;;;2072154;28;20029;-68
2022/04/09 00:16:51;;;;;;;6.43;5.10;;;5.50;99.90;;;;;;2071072;28;20132;-68
2022/04/09 00:17:52;;;;;;;5.88;4.28;;;5.50;99.90;;;;;;2071321;28;20080;-68
2022/04/09 00:18:52;;;;;;;5.20;3.92;;;5.40;99.90;;;;;;2071985;28;20033;-67
2022/04/09 00:19:53;;;;;;;4.50;3.75;;;5.40;99.90;;;;;;2071361;28;20022;-66
2022/04/09 00:20:54;;;;;;;6.22;4.00;;;5.40;99.90;;;;;;2071360;28;20026;-66
2022/04/09 00:21:54;;;;;;;5.60;3.92;;;5.50;99.90;;;;;;2072035;28;20184;-66
2022/04/09 00:22:55;;;;;;;5.45;3.88;;;5.40;99.90;;;;;;2072059;28;20034;-67
2022/04/09 00:23:56;;;;;;;5.72;3.67;;;5.40;99.90;;;;;;2071782;28;20045;-66
2022/04/09 00:24:56;;;;;;;6.35;4.40;;;5.40;99.90;;;;;;2071731;28;20030;-65
2022/04/09 00:25:57;;;;;;;6.55;4.82;;;5.40;99.90;;;;;;2072374;28;20021;-66
2022/04/09 00:26:58;;;;;;;5.68;4.82;;;5.40;99.90;;;;;;2072334;28;20112;-67
2022/04/09 00:27:58;;;;;;;5.38;4.60;;;5.40;99.90;;;;;;2072170;28;20034;-67
2022/04/09 00:28:59;;;;;;;6.22;5.05;;;5.40;99.90;;;;;;2072079;28;20100;-67
2022/04/09 00:30:00;;;;;;;6.78;4.93;;;5.40;99.90;;;;;;2071321;28;20109;-68
2022/04/09 00:31:01;;;;;;;7.40;5.95;;;5.40;99.90;;;;;;2071593;28;20105;-67
2022/04/09 00:32:01;;;;;;;8.20;5.60;;;5.40;99.90;;;;;;2063268;28;20675;-67
2022/04/09 00:33:02;;;;;;;7.03;5.32;;;5.40;99.90;;;;;;2063400;28;20022;-67
2022/04/09 00:34:05;;;;;;;7.88;5.70;;;5.40;99.90;;;;;;2071493;28;20436;-67
2022/04/09 00:35:06;;;;;;;8.30;6.15;;;5.40;99.90;;;;;;2072473;28;20033;-66
2022/04/09 00:36:07;;;;;;;8.05;5.78;;;5.40;99.90;;;;;;2072217;28;20104;-68
2022/04/09 00:37:08;;;;;;;9.40;6.30;;;5.40;99.90;;;;;;2071381;28;20125;-68
2022/04/09 00:38:09;;;;;;;8.68;6.18;;;5.40;99.90;;;;;;2072474;28;20101;-68
2022/04/09 00:39:10;;;;;;;7.80;6.00;;;5.30;99.90;;;;;;2072079;28;20037;-67
2022/04/09 00:40:18;;;;;;;8.10;5.90;;;5.30;99.90;;;;;;2071311;28;20018;-68
2022/04/09 00:41:19;;;;;;;7.75;6.03;;;5.30;99.90;;;;;;2071845;28;20029;-66
2022/04/09 00:42:20;;;;;;;8.32;6.28;;;5.30;99.90;;;;;;2072273;28;20104;-67
2022/04/09 00:43:21;;;;;;;9.32;5.90;;;5.30;99.90;;;;;;2072214;28;20025;-66
2022/04/09 00:44:22;;;;;;;8.35;5.93;;;5.30;99.90;;;;;;2071983;28;20379;-66
2022/04/09 00:45:23;;;;;;;7.68;5.53;;;5.30;99.90;;;;;;2071683;28;20026;-66
2022/04/09 00:46:24;;;;;;;7.78;5.45;;;5.30;99.90;;;;;;2072217;28;20026;-66
2022/04/09 00:47:24;;;;;;;8.02;5.72;;;5.40;99.90;;;;;;2072153;28;20115;-66
2022/04/09 00:48:25;;;;;;;8.32;6.15;;;5.40;99.90;;;;;;2072154;28;20033;-67
2022/04/09 00:49:28;;;;;;;6.68;5.60;;;5.40;99.90;;;;;;2071497;28;20505;-66
2022/04/09 00:50:29;;;;;;;6.85;5.60;;;5.40;99.90;;;;;;2071211;28;20041;-66
2022/04/09 00:51:29;;;;;;;6.60;5.30;;;5.40;99.90;;;;;;2071957;28;20128;-67
2022/04/09 00:52:34;;;;;;;7.32;5.70;;;5.50;99.90;;;;;;2071190;28;20069;-66
2022/04/09 00:53:36;;;;;;;7.40;5.70;;;5.50;99.90;;;;;;2071042;28;20037;-67
2022/04/09 00:54:39;;;;;;;7.55;5.90;;;5.50;99.90;;;;;;2071756;28;20835;-67
2022/04/09 00:57:05;;;;;;;7.30;5.80;;;5.50;99.90;;;;;;2071671;28;20025;-67
2022/04/09 00:58:10;;;;;;;7.30;5.28;;;5.50;99.90;;;;;;2071086;28;20026;-66
2022/04/09 00:59:13;;;;;;;7.18;5.68;;;5.50;99.90;;;;;;2071181;28;20493;-66
2022/04/09 01:00:14;;;;;;;7.85;6.05;;;5.50;99.90;;;;;;2070777;28;20032;-67
2022/04/09 01:01:18;;;;;;;7.45;6.03;;;5.50;99.90;;;;;;2071146;28;20034;-66
2022/04/09 01:02:19;;;;;;;7.03;5.78;;;5.50;99.90;;;;;;2071015;28;20704;-66
2022/04/09 01:03:20;;;;;;;7.13;6.18;;;5.50;99.90;;;;;;2062621;28;20034;-66
2022/04/09 01:04:21;;;;;;;7.57;5.55;;;5.50;99.90;;;;;;2062788;28;20081;-66
2022/04/09 01:05:22;;;;;;;6.65;5.50;;;5.50;99.90;;;;;;2070964;28;20040;-67
2022/04/09 01:06:23;;;;;;;6.75;5.32;;;5.50;99.90;;;;;;2071084;28;20117;-66
2022/04/09 01:07:24;;;;;;;6.53;5.35;;;5.50;99.90;;;;;;2070862;28;20398;-67
2022/04/09 01:08:25;;;;;;;6.70;5.35;;;5.50;99.90;;;;;;2071050;28;20786;-66
2022/04/09 01:09:26;;;;;;;6.93;5.38;;;5.50;99.90;;;;;;2070856;28;20200;-67
2022/04/09 01:10:26;;;;;;;6.75;5.22;;;5.50;99.90;;;;;;2070953;28;20153;-66
2022/04/09 01:11:28;;;;;;;6.85;5.35;;;5.50;99.90;;;;;;2071672;28;20738;-65
2022/04/09 01:12:29;;;;;;;6.60;5.57;;;5.50;99.90;;;;;;2070955;28;20056;-67
2022/04/09 01:13:29;;;;;;;7.25;5.57;;;5.50;99.90;;;;;;2070691;28;20096;-68
2022/04/09 01:14:30;;;;;;;7.25;5.60;;;5.50;99.90;;;;;;2070837;28;20026;-68
2022/04/09 01:15:31;;;;;;;7.05;5.70;;;5.50;99.90;;;;;;2070842;28;20033;-65
2022/04/09 01:16:32;;;;;;;7.97;5.90;;;5.50;99.90;;;;;;2070804;28;20044;-68
2022/04/09 01:17:37;;;;;;;7.05;5.70;;;5.40;99.90;;;;;;2070730;28;20483;-66
2022/04/09 01:18:41;;;;;;;7.05;5.70;;;5.50;99.90;;;;;;2070740;28;20041;-67
2022/04/09 01:19:44;;;;;;;9.27;5.53;;;5.40;99.90;;;;;;2070569;28;20034;-67
2022/04/09 01:20:44;;;;;;;7.10;5.45;;;5.40;99.90;;;;;;2070826;28;20025;-66
2022/04/09 01:21:48;;;;;;;6.75;5.57;;;5.40;99.90;;;;;;2070744;28;20030;-66
2022/04/09 01:22:49;;;;;;;6.47;5.47;;;5.40;99.90;;;;;;2071017;28;20525;-66
2022/04/09 01:23:51;;;;;;;7.53;5.45;;;5.40;99.90;;;;;;2070637;28;20026;-67
2022/04/09 01:24:51;;;;;;;9.77;5.82;;;5.40;99.90;;;;;;2070815;28;20040;-66
2022/04/09 01:25:52;;;;;;;8.85;6.13;;;5.30;99.90;;;;;;2071022;28;20050;-66
2022/04/09 01:26:53;;;;;;;8.50;5.53;;;5.30;99.90;;;;;;2062689;28;20045;-67
2022/04/09 01:28:09;;;;;;;9.02;5.57;;;5.30;99.90;;;;;;2070890;28;20034;-66
2022/04/09 01:29:09;;;;;;;7.07;5.57;;;5.30;99.90;;;;;;2071148;28;20022;-66
2022/04/09 01:30:10;;;;;;;7.22;5.30;;;5.30;99.90;;;;;;2070842;28;20571;-66
2022/04/09 01:31:11;;;;;;;6.65;5.32;;;5.30;99.90;;;;;;2070897;28;20509;-67
2022/04/09 01:32:11;;;;;;;6.78;5.55;;;5.30;99.90;;;;;;2071002;28;20026;-67
2022/04/09 01:33:19;;;;;;;7.57;5.47;;;5.40;99.90;;;;;;2070683;28;20087;-67
2022/04/09 01:34:20;;;;;;;9.00;5.70;;;5.40;99.90;;;;;;2070815;28;20714;-66
2022/04/09 01:35:21;;;;;;;7.63;5.22;;;5.40;99.90;;;;;;2070646;28;20037;-66
2022/04/09 01:36:21;;;;;;;9.43;5.88;;;5.40;99.90;;;;;;2062474;28;20038;-66
2022/04/09 01:37:22;;;;;;;7.38;5.30;;;5.40;99.90;;;;;;2061945;28;20058;-67
2022/04/09 01:38:23;;;;;;;7.45;5.40;;;5.40;99.90;;;;;;2062647;28;20471;-66
2022/04/09 01:39:23;;;;;;;6.78;5.13;;;5.40;99.90;;;;;;2070982;28;20084;-66
2022/04/09 01:40:24;;;;;;;8.98;5.65;;;5.50;99.90;;;;;;2070808;28;20025;-68
2022/04/09 01:41:25;;;;;;;7.75;5.28;;;5.50;99.90;;;;;;2070871;28;20072;-66
2022/04/09 01:42:36;;;;;;;6.85;5.45;;;5.50;99.90;;;;;;2070726;28;20164;-64
2022/04/09 01:43:40;;;;;;;7.50;5.47;;;5.50;99.90;;;;;;2070616;28;20041;-64
2022/04/09 01:44:41;;;;;;;7.95;5.50;;;5.50;99.90;;;;;;2071156;28;20787;-64
2022/04/09 01:45:41;;;;;;;7.75;5.55;;;5.50;99.90;;;;;;2070713;28;20033;-64
2022/04/09 01:46:50;;;;;;;9.73;6.05;;;5.50;99.90;;;;;;2070703;28;20117;-64
2022/04/09 01:47:50;;;;;;;8.02;5.47;;;5.40;99.90;;;;;;2070837;28;20034;-64
2022/04/09 01:48:51;;;;;;;8.80;6.07;;;5.40;99.90;;;;;;2070821;28;20568;-64
2022/04/09 01:49:51;;;;;;;7.20;5.28;;;5.40;99.90;;;;;;2070690;28;20402;-65
2022/04/09 01:50:52;;;;;;;7.80;5.38;;;5.40;99.90;;;;;;2062459;28;20073;-65
2022/04/09 01:51:53;;;;;;;8.13;5.35;;;5.40;99.90;;;;;;2062572;28;20464;-64
2022/04/09 01:52:54;;;;;;;8.55;5.28;;;5.40;99.90;;;;;;2062551;28;20027;-64
2022/04/09 01:53:55;;;;;;;7.05;5.00;;;5.40;99.90;;;;;;2062292;28;20041;-64
2022/04/09 01:54:55;;;;;;;8.13;5.22;;;5.40;99.90;;;;;;2062567;28;20022;-64
2022/04/09 01:55:56;;;;;;;9.30;6.03;;;5.40;99.90;;;;;;2062599;28;20036;-64
2022/04/09 01:57:00;;;;;;;7.57;5.90;;;5.40;99.90;;;;;;2062840;28;20893;-65
2022/04/09 01:58:01;;;;;;;8.05;5.90;;;5.40;99.90;;;;;;2070686;28;20073;-64
2022/04/09 01:59:06;;;;;;;8.05;5.65;;;5.40;99.90;;;;;;2062627;28;20100;-64
2022/04/09 02:00:10;;;;;;;8.27;5.75;;;5.40;99.90;;;;;;2063167;28;20031;-64
2022/04/09 02:01:20;;;;;;;6.93;5.40;;;5.40;99.90;;;;;;2062682;28;20030;-64
2022/04/09 02:02:21;;;;;;;7.88;5.78;;;5.40;99.90;;;;;;2055786;28;20161;-65
2022/04/09 02:03:21;;;;;;;8.10;5.80;;;5.40;99.90;;;;;;2070321;28;20034;-65
2022/04/09 02:04:22;;;;;;;7.43;5.68;;;5.40;99.90;;;;;;2070743;28;20048;-65
2022/04/09 02:05:24;;;;;;;8.93;5.88;;;5.40;99.90;;;;;;2070611;28;20124;-65
2022/04/09 02:06:25;;;;;;;6.93;5.60;;;5.40;99.90;;;;;;2062910;28;20053;-65
2022/04/09 02:07:27;;;;;;;9.20;6.32;;;5.40;99.90;;;;;;2070841;28;20141;-65
2022/04/09 02:08:29;;;;;;;8.82;6.13;;;5.40;99.90;;;;;;2062535;28;20030;-64
2022/04/09 02:09:30;;;;;;;8.02;5.80;;;5.40;99.90;;;;;;2062683;28;20027;-64
2022/04/09 02:10:31;;;;;;;10.02;6.22;;;5.40;99.90;;;;;;2062542;28;20037;-65
2022/04/09 02:11:34;;;;;;;9.82;5.72;;;5.40;99.90;;;;;;2062546;28;20121;-65
2022/04/09 02:12:35;;;;;;;9.15;6.32;;;5.40;99.90;;;;;;2062995;28;20105;-64
2022/04/09 02:13:36;;;;;;;9.07;5.68;;;5.40;99.90;;;;;;2070557;28;20033;-65
2022/04/09 02:14:38;;;;;;;8.73;5.88;;;5.40;99.90;;;;;;2062737;28;20036;-65
2022/04/09 02:15:39;;;;;;;8.27;6.15;;;5.50;99.90;;;;;;2070865;28;20026;-65
2022/04/09 02:16:41;;;;;;;8.45;6.07;;;5.40;99.90;;;;;;2062213;28;20053;-66
2022/04/09 02:17:43;;;;;;;10.45;6.60;;;5.50;99.90;;;;;;2062607;28;20026;-64
2022/04/09 02:18:43;;;;;;;9.50;6.40;;;5.40;99.90;;;;;;2062350;28;20049;-64
2022/04/09 02:19:44;;;;;;;8.27;6.15;;;5.40;99.90;;;;;;2070641;28;20465;-66
2022/04/09 02:20:44;;;;;;;7.93;5.75;;;5.50;99.90;;;;;;2071347;28;20019;-67
2022/04/09 02:21:46;;;;;;;7.82;6.07;;;5.50;99.90;;;;;;2070615;28;20105;-68
2022/04/09 02:22:46;;;;;;;10.60;7.07;;;5.50;99.90;;;;;;2062536;28;20035;-69
2022/04/09 02:23:47;;;;;;;10.00;6.60;;;5.50;99.90;;;;;;2070411;28;20513;-66
2022/04/09 02:24:51;;;;;;;9.13;6.63;;;5.40;99.90;;;;;;2062452;28;20085;-66
2022/04/09 02:25:51;;;;;;;10.38;6.90;;;5.40;99.90;;;;;;2070848;28;20026;-68
2022/04/09 02:26:52;;;;;;;9.27;6.93;;;5.40;99.90;;;;;;2071119;28;20048;-67
2022/04/09 02:27:53;;;;;;;10.02;6.70;;;5.40;99.90;;;;;;2071210;28;20610;-68
2022/04/09 02:28:57;;;;;;;10.48;7.25;;;5.30;99.90;;;;;;2070551;28;20030;-67
2022/04/09 02:29:58;;;;;;;9.57;6.80;;;5.30;99.90;;;;;;2070507;28;20029;-69
2022/04/09 02:30:58;;;;;;;9.65;7.28;;;5.30;99.90;;;;;;2070591;28;20026;-68
2022/04/09 02:32:09;;;;;;;9.98;7.60;;;5.30;99.90;;;;;;2070645;28;20619;-68
2022/04/09 02:33:10;;;;;;;12.13;8.50;;;5.30;99.90;;;;;;2070374;28;20541;-68
2022/04/09 02:34:15;;;;;;;12.05;8.27;;;5.30;99.90;;;;;;2070692;28;20043;-68
2022/04/09 02:35:21;;;;;;;13.60;8.77;;;5.20;99.90;;;;;;2071397;28;20026;-68
2022/04/09 02:36:23;;;;;;;10.70;8.00;;;5.30;99.90;;;;;;2070956;28;20053;-68
2022/04/09 02:37:24;;;;;;;12.38;8.60;;;5.20;99.90;;;;;;2070784;28;20517;-68
2022/04/09 02:38:25;;;;;;;11.38;8.50;;;5.20;99.90;;;;;;2070687;28;20037;-68
2022/04/09 02:39:26;;;;;;;10.93;8.07;;;5.20;99.90;;;;;;2070720;28;20030;-68
2022/04/09 02:40:28;;;;;;;11.57;8.38;;;5.30;99.90;;;;;;2070779;28;20057;-68
2022/04/09 02:41:29;;;;;;;11.27;8.00;;;5.20;99.90;;;;;;2071104;28;20029;-68
2022/04/09 02:42:31;;;;;;;11.82;8.77;;;5.20;99.90;;;;;;2071276;28;20026;-67
2022/04/09 02:43:32;;;;;;;10.23;8.25;;;5.20;99.90;;;;;;2071219;28;20409;-66
2022/04/09 02:44:32;;;;;;;11.75;8.10;;;5.20;99.90;;;;;;2072949;28;20030;-67
2022/04/09 02:45:34;;;;;;;9.93;8.13;;;5.20;99.90;;;;;;2072460;28;20045;-67
2022/04/09 02:46:38;;;;;;;11.77;8.52;;;5.20;99.90;;;;;;2072000;28;20109;-68
2022/04/09 02:47:41;;;;;;;10.43;8.30;;;5.20;99.90;;;;;;2064175;28;20037;-67
2022/04/09 02:48:47;;;;;;;11.10;8.10;;;5.20;99.90;;;;;;2065562;28;20076;-68
2022/04/09 02:49:51;;;;;;;10.93;8.52;;;5.20;99.90;;;;;;2072262;28;20030;-68
2022/04/09 02:50:51;;;;;;;12.82;8.63;;;5.20;99.90;;;;;;2063912;28;20766;-69
2022/04/09 02:51:55;;;;;;;12.43;8.98;;;5.20;99.90;;;;;;2064447;28;20026;-68
2022/04/09 02:52:56;;;;;;;12.25;8.90;;;5.20;99.90;;;;;;2063965;28;20054;-68
2022/04/09 02:53:59;;;;;;;13.23;9.27;;;5.20;99.90;;;;;;2072037;28;20104;-68
2022/04/09 02:55:02;;;;;;;13.20;9.10;;;5.20;99.90;;;;;;2072038;28;20596;-68
2022/04/09 02:56:04;;;;;;;13.70;9.73;;;5.20;99.90;;;;;;2072078;28;20097;-68
2022/04/09 02:57:08;;;;;;;13.48;9.55;;;5.20;99.90;;;;;;2063942;28;20510;-69
2022/04/09 02:58:15;;;;;;;14.43;10.25;;;5.20;99.90;;;;;;2064711;28;20022;-68
2022/04/09 02:59:18;;;;;;;13.52;9.88;;;5.20;99.90;;;;;;2064312;28;20089;-68
2022/04/09 03:00:20;;;;;;;14.68;10.30;;;5.20;99.90;;;;;;2063894;28;20087;-68
2022/04/09 03:01:20;;;;;;;15.73;10.82;;;5.20;99.90;;;;;;2063888;28;20134;-68
2022/04/09 03:02:21;;;;;;;14.95;10.30;;;5.20;99.90;;;;;;2063686;28;20084;-68
2022/04/09 03:03:22;;;;;;;14.43;10.13;;;5.20;99.90;;;;;;2063705;28;20113;-68
2022/04/09 03:04:25;;;;;;;15.68;10.60;;;5.20;99.90;;;;;;2064107;28;20033;-69
2022/04/09 03:05:26;;;;;;;13.20;10.32;;;5.20;99.90;;;;;;2064075;28;20778;-67
2022/04/09 03:06:26;;;;;;;13.90;10.80;;;5.20;99.90;;;;;;2072177;28;20640;-68
2022/04/09 03:07:28;;;;;;;13.98;10.63;;;5.20;99.90;;;;;;2072607;28;20040;-67
2022/04/09 03:08:29;;;;;;;15.65;10.88;;;5.20;99.90;;;;;;2072583;28;20025;-67
2022/04/09 03:09:29;;;;;;;14.65;10.77;;;5.20;99.90;;;;;;2071909;28;20136;-68
2022/04/09 03:10:30;;;;;;;15.60;11.30;;;5.20;99.90;;;;;;2071941;28;20030;-68
2022/04/09 03:11:30;;;;;;;16.55;11.10;;;5.20;99.90;;;;;;2071728;28;20580;-68
2022/04/09 03:12:31;;;;;;;14.77;11.02;;;5.20;99.90;;;;;;2071890;28;20092;-67
2022/04/09 03:13:32;;;;;;;16.83;11.18;;;5.20;99.90;;;;;;2072042;28;20097;-68
2022/04/09 03:14:32;;;;;;;15.52;10.73;;;5.20;99.90;;;;;;2064271;28;20481;-68
2022/04/09 03:15:33;;;;;;;16.30;11.07;;;5.20;99.90;;;;;;2072328;28;20030;-68
2022/04/09 03:16:34;;;;;;;13.55;10.65;;;5.20;99.90;;;;;;2071981;28;20022;-68
2022/04/09 03:17:35;;;;;;;15.07;11.40;;;5.20;99.90;;;;;;2071883;28;20111;-68
2022/04/09 03:18:36;;;;;;;17.08;10.57;;;5.10;99.90;;;;;;2071810;28;20112;-67
2022/04/09 03:19:37;;;;;;;16.05;10.75;;;5.20;99.90;;;;;;2063763;28;20026;-68
2022/04/09 03:20:38;;;;;;;15.63;10.73;;;5.10;99.90;;;;;;2063629;28;20030;-68
2022/04/09 03:21:40;;;;;;;14.13;10.55;;;5.10;99.90;;;;;;2071681;28;20033;-68
2022/04/09 03:22:45;;;;;;;14.88;11.30;;;5.10;99.90;;;;;;2063942;28;20061;-68
2022/04/09 03:23:46;;;;;;;15.55;11.20;;;5.20;99.90;;;;;;2056844;28;20057;-68
2022/04/09 03:24:47;;;;;;;14.70;11.38;;;5.10;99.90;;;;;;2063787;28;20030;-68
2022/04/09 03:25:49;;;;;;;14.88;10.88;;;5.10;99.90;;;;;;2072040;28;20022;-67
2022/04/09 03:26:52;;;;;;;14.85;11.13;;;5.20;99.90;;;;;;2079631;28;20036;-68
2022/04/09 03:27:53;;;;;;;17.33;11.68;;;5.20;99.90;;;;;;2071685;28;20472;-67
2022/04/09 03:28:54;;;;;;;16.83;11.52;;;5.20;99.90;;;;;;2071691;28;20425;-68
2022/04/09 03:29:55;;;;;;;17.42;11.43;;;5.20;99.90;;;;;;2063801;28;20034;-68
2022/04/09 03:30:57;;;;;;;15.70;11.88;;;5.20;99.90;;;;;;2056327;28;20059;-68
2022/04/09 03:32:01;;;;;;;16.15;11.80;;;5.20;99.90;;;;;;2064358;28;20105;-68
2022/04/09 03:33:05;;;;;;;16.33;11.40;;;5.20;99.90;;;;;;2064538;28;20510;-68
2022/04/09 03:34:09;;;;;;;17.88;12.75;;;5.20;99.90;;;;;;2072050;28;20030;-68
2022/04/09 03:35:11;;;;;;;16.50;12.20;;;5.20;99.90;;;;;;2072017;28;20028;-68
2022/04/09 03:36:13;;;;;;;16.38;11.60;;;5.20;99.90;;;;;;2064181;28;20023;-68
2022/04/09 03:37:15;;;;;;;17.65;12.38;;;5.20;99.90;;;;;;2072018;28;20036;-68
2022/04/09 03:38:16;;;;;;;15.80;12.18;;;5.20;99.90;;;;;;2071974;28;20021;-68
2022/04/09 03:39:27;;;;;;;16.85;11.38;;;5.20;99.90;;;;;;2065420;28;20321;-68
2022/04/09 03:40:28;;;;;;;18.10;12.55;;;5.20;99.90;;;;;;2064015;28;20069;-67
2022/04/09 03:41:28;;;;;;;16.98;11.43;;;5.20;99.90;;;;;;2064311;28;20429;-68
2022/04/09 03:42:34;;;;;;;15.98;11.85;;;5.20;99.90;;;;;;2056593;28;20097;-68
2022/04/09 03:43:35;;;;;;;15.65;11.57;;;5.20;99.90;;;;;;2056579;28;20090;-68
2022/04/09 03:44:35;;;;;;;17.73;11.98;;;5.20;99.90;;;;;;2064337;28;20080;-68
2022/04/09 03:45:36;;;;;;;15.45;11.25;;;5.10;99.90;;;;;;2072242;28;20038;-67
2022/04/09 03:46:38;;;;;;;15.48;11.93;;;5.10;99.90;;;;;;2072490;28;20877;-68
2022/04/09 03:47:44;;;;;;;16.10;11.65;;;5.10;99.90;;;;;;2073127;28;20032;-70
2022/04/09 03:48:49;;;;;;;16.98;12.07;;;5.10;99.90;;;;;;2064497;28;20030;-67
2022/04/09 03:49:50;;;;;;;15.95;11.85;;;5.10;99.90;;;;;;2072359;28;20029;-68
2022/04/09 03:50:52;;;;;;;17.15;11.98;;;5.10;99.90;;;;;;2055885;28;20033;-68
2022/04/09 03:51:54;;;;;;;14.40;11.50;;;5.10;99.90;;;;;;2064410;28;20031;-68
2022/04/09 03:52:58;;;;;;;17.25;12.80;;;5.10;99.90;;;;;;2063952;28;20030;-68
2022/04/09 03:54:00;;;;;;;19.23;12.15;;;5.00;99.90;;;;;;2056471;28;20026;-68
2022/04/09 03:55:02;;;;;;;19.23;12.70;;;5.00;99.90;;;;;;2056624;28;20027;-68
2022/04/09 03:56:04;;;;;;;17.08;12.52;;;5.00;99.90;;;;;;2064389;28;20042;-68
2022/04/09 03:57:11;;;;;;;18.95;13.25;;;5.00;99.90;;;;;;2064511;28;20054;-67
2022/04/09 03:58:24;;;;;;;18.33;12.57;;;5.00;99.90;;;;;;2065763;28;20617;-68
2022/04/09 03:59:27;;;;;;;18.63;13.15;;;4.90;99.90;;;;;;2064369;28;20057;-67
2022/04/09 04:00:28;;;;;;;17.83;12.57;;;4.90;99.90;;;;;;2063431;28;20029;-68
2022/04/09 04:01:30;;;;;;;19.10;13.00;;;4.90;99.90;;;;;;2056087;28;20031;-71
2022/04/09 04:02:36;;;;;;;21.13;13.00;;;4.90;99.90;;;;;;2057022;28;20031;-68
2022/04/09 04:03:37;;;;;;;19.27;13.40;;;4.90;99.90;;;;;;2063697;28;20125;-68
2022/04/09 04:04:38;;;;;;;17.30;13.13;;;4.90;99.90;;;;;;2063976;28;20824;-67
2022/04/09 04:05:39;;;;;;;18.10;12.85;;;4.90;99.90;;;;;;2063837;28;20034;-68
2022/04/09 04:06:43;;;;;;;18.65;12.95;;;4.90;99.90;;;;;;2055971;28;20151;-68
2022/04/09 04:07:46;;;;;;;18.23;13.23;;;4.90;99.90;;;;;;2064465;28;20026;-68
2022/04/09 04:08:49;;;;;;;19.10;13.23;;;4.90;99.90;;;;;;2064142;28;20117;-68
2022/04/09 04:09:54;;;;;;;21.63;13.45;;;4.90;99.90;;;;;;2072011;28;20034;-68
2022/04/09 04:10:55;;;;;;;18.17;13.43;;;4.90;99.90;;;;;;2072279;28;20022;-68
2022/04/09 04:11:59;;;;;;;19.25;12.95;;;4.90;99.90;;;;;;2071915;28;20021;-68
2022/04/09 04:13:06;;;;;;;18.33;13.25;;;4.90;99.90;;;;;;2071913;28;20056;-67
2022/04/09 04:14:09;;;;;;;19.10;12.82;;;4.90;99.90;;;;;;2072146;28;20058;-68
2022/04/09 04:15:10;;;;;;;19.70;13.52;;;4.90;99.90;;;;;;2071962;28;20034;-68
2022/04/09 04:16:13;;;;;;;21.73;13.82;;;4.90;99.90;;;;;;2064197;28;20475;-68
2022/04/09 04:17:17;;;;;;;19.85;13.23;;;4.90;99.90;;;;;;2064212;28;20038;-67
2022/04/09 04:18:18;;;;;;;19.10;13.32;;;4.90;99.90;;;;;;2072180;28;20041;-67
2022/04/09 04:19:24;;;;;;;16.83;12.85;;;4.90;99.90;;;;;;2064010;28;20053;-67
2022/04/09 04:20:27;;;;;;;17.63;13.15;;;4.90;99.90;;;;;;2049112;28;20030;-67
2022/04/09 04:21:30;;;;;;;19.27;12.93;;;4.90;99.90;;;;;;2056781;28;20101;-68
2022/04/09 04:22:36;;;;;;;22.30;13.63;;;4.90;99.90;;;;;;2064548;28;20113;-67
2022/04/09 04:23:37;;;;;;;20.00;12.90;;;4.90;99.90;;;;;;2055955;28;20090;-68
2022/04/09 04:24:52;;;;;;;18.77;12.70;;;4.90;99.90;;;;;;2066207;28;20026;-68
2022/04/09 04:25:52;;;;;;;17.38;12.15;;;4.90;99.90;;;;;;2071993;28;20018;-68
2022/04/09 04:26:54;;;;;;;17.80;12.98;;;4.90;99.90;;;;;;2064091;28;20037;-68
2022/04/09 04:27:57;;;;;;;19.67;12.05;;;4.80;99.90;;;;;;2064210;28;20559;-67
2022/04/09 04:29:00;;;;;;;18.42;12.48;;;4.80;99.90;;;;;;2063919;28;20052;-68
2022/04/09 04:30:04;;;;;;;16.55;11.68;;;4.90;99.90;;;;;;2056447;28;20095;-68
2022/04/09 04:31:07;;;;;;;21.17;11.60;;;4.90;99.90;;;;;;2064470;28;20026;-68
2022/04/09 04:32:08;;;;;;;16.90;11.25;;;4.90;99.90;;;;;;2064002;28;20048;-68
2022/04/09 04:33:09;;;;;;;16.65;11.40;;;4.90;99.90;;;;;;2063331;28;20530;-68
2022/04/09 04:34:16;;;;;;;19.00;11.23;;;4.90;99.90;;;;;;2056719;28;20022;-68
2022/04/09 04:35:18;;;;;;;19.38;11.52;;;4.90;99.90;;;;;;2057039;28;20057;-68
2022/04/09 04:36:19;;;;;;;18.10;11.05;;;4.90;99.90;;;;;;2063631;28;20466;-68
2022/04/09 04:37:20;;;;;;;17.73;11.20;;;4.90;99.90;;;;;;2071826;28;20034;-70
2022/04/09 04:38:23;;;;;;;18.23;11.18;;;5.00;99.90;;;;;;2071825;28;20022;-68
2022/04/09 04:39:24;;;;;;;17.77;10.63;;;5.00;99.90;;;;;;2064228;28;20049;-68
2022/04/09 04:40:26;;;;;;;17.58;10.30;;;4.90;99.90;;;;;;2072039;28;20459;-68
2022/04/09 04:41:32;;;;;;;18.67;9.95;;;4.90;99.90;;;;;;2071836;28;20154;-68
2022/04/09 04:42:33;;;;;;;19.02;10.27;;;4.90;99.90;;;;;;2071994;28;20026;-67
2022/04/09 04:43:35;;;;;;;18.42;10.38;;;4.90;99.90;;;;;;2063625;28;20030;-67
2022/04/09 04:44:38;;;;;;;17.58;10.43;;;5.00;99.90;;;;;;2063695;28;20026;-66
2022/04/09 04:45:39;;;;;;;15.20;9.90;;;4.90;99.90;;;;;;2063546;28;20034;-68
2022/04/09 04:46:44;;;;;;;16.08;9.55;;;4.90;99.90;;;;;;2064109;28;20037;-68
2022/04/09 04:47:50;;;;;;;19.80;9.90;;;4.90;99.90;;;;;;2071667;28;20120;-68
2022/04/09 04:48:55;;;;;;;17.73;9.80;;;4.90;99.90;;;;;;2071652;28;20050;-68
2022/04/09 04:50:04;;;;;;;14.80;9.27;;;4.90;99.90;;;;;;2071764;28;20018;-68
2022/04/09 04:51:05;;;;;;;16.63;9.25;;;5.00;99.90;;;;;;2071812;28;20025;-67
2022/04/09 04:52:08;;;;;;;17.05;8.93;;;5.00;99.90;;;;;;2071615;28;20591;-68
2022/04/09 04:53:10;;;;;;;16.10;9.73;;;5.00;99.90;;;;;;2063117;28;20109;-68
2022/04/09 04:54:16;;;;;;;18.00;8.70;;;5.00;99.90;;;;;;2056667;28;20521;-68
2022/04/09 04:55:18;;;;;;;17.83;9.15;;;5.00;99.90;;;;;;2063209;28;20481;-68
2022/04/09 04:56:24;;;;;;;17.08;8.60;;;5.00;99.90;;;;;;2063363;28;20047;-68
2022/04/09 04:57:27;;;;;;;18.13;8.93;;;5.00;99.90;;;;;;2071003;28;20527;-68
2022/04/09 04:58:29;;;;;;;16.13;9.00;;;5.00;99.90;;;;;;2071045;28;20022;-67
2022/04/09 04:59:34;;;;;;;13.07;7.90;;;5.00;99.90;;;;;;2071060;28;20030;-68
2022/04/09 05:00:35;;;;;;;17.23;9.02;;;5.10;99.90;;;;;;2062923;28;20058;-69
2022/04/09 05:01:40;;;;;;;14.52;8.48;;;5.10;99.90;;;;;;2063501;28;20726;-67
2022/04/09 05:02:41;;;;;;;16.88;8.48;;;5.10;99.90;;;;;;2070864;28;20026;-68
2022/04/09 05:03:42;;;;;;;15.23;8.60;;;5.10;99.90;;;;;;2070758;28;20017;-68
2022/04/09 05:04:52;;;;;;;19.23;8.95;;;5.10;99.90;;;;;;2070921;28;20107;-68
2022/04/09 05:05:53;;;;;;;16.85;8.70;;;5.10;99.90;;;;;;2071004;28;20123;-67
2022/04/09 05:06:54;;;;;;;15.80;9.02;;;5.10;99.90;;;;;;2070985;28;20037;-67
2022/04/09 05:07:56;;;;;;;18.20;9.13;;;5.10;99.90;;;;;;2071021;28;20116;-68
2022/04/09 05:08:59;;;;;;;15.52;8.77;;;5.10;99.90;;;;;;2071041;28;20028;-68
2022/04/09 05:10:12;;;;;;;15.52;9.00;;;5.10;99.90;;;;;;2071013;28;20030;-68
2022/04/09 05:11:14;;;;;;;17.80;8.98;;;5.10;99.90;;;;;;2071035;28;20029;-68
2022/04/09 05:12:14;;;;;;;15.52;8.20;;;5.10;99.90;;;;;;2071104;28;20029;-68
2022/04/09 05:13:18;;;;;;;16.08;8.10;;;5.10;99.90;;;;;;2070716;28;20026;-68
2022/04/09 05:14:18;;;;;;;16.80;8.63;;;5.10;99.90;;;;;;2071002;28;20030;-68
2022/04/09 05:15:24;;;;;;;17.33;8.68;;;5.10;99.90;;;;;;2070789;28;20021;-69
2022/04/09 05:16:26;;;;;;;20.77;8.23;;;5.10;99.90;;;;;;2070856;28;20022;-68
2022/04/09 05:17:34;;;;;;;15.18;8.30;;;5.10;99.90;;;;;;2063478;28;20041;-68
2022/04/09 05:18:34;;;;;;;14.07;8.60;;;5.10;99.90;;;;;;2062802;28;20023;-68
2022/04/09 05:19:35;;;;;;;16.33;8.93;;;5.10;99.90;;;;;;2062764;28;20034;-69
2022/04/09 05:20:46;;;;;;;16.75;8.38;;;5.10;99.90;;;;;;2062805;28;20030;-68
2022/04/09 05:21:48;;;;;;;16.17;7.85;;;5.10;99.90;;;;;;2064530;28;20500;-68
2022/04/09 05:22:51;;;;;;;14.55;8.48;;;5.10;99.90;;;;;;2070967;28;20030;-68
2022/04/09 05:23:52;;;;;;;13.57;7.93;;;5.10;99.90;;;;;;2070813;28;20410;-69
2022/04/09 05:24:53;;;;;;;14.10;8.20;;;5.10;99.90;;;;;;2062884;28;20037;-69
2022/04/09 05:25:54;;;;;;;15.60;8.20;;;5.10;99.90;;;;;;2063024;28;20442;-68